createdAt,value
2022-08-26T00:00:59.291Z,16.88
2022-08-26T00:05:06.399Z,14.90
2022-08-26T00:09:16.238Z,15.80
2022-08-26T00:13:23.583Z,14.23
2022-08-26T00:17:30.300Z,13.23
2022-08-26T00:21:37.589Z,13.57
2022-08-26T00:25:45.695Z,11.88
2022-08-26T00:29:53.388Z,12.30
2022-08-26T00:34:00.242Z,10.65
2022-08-26T00:38:07.467Z,11.68
2022-08-26T00:42:14.379Z,11.60
2022-08-26T00:46:48.578Z,12.20
2022-08-26T00:50:59.523Z,10.95
2022-08-26T00:55:19.744Z,11.65
2022-08-26T00:59:28.878Z,11.07
2022-08-26T01:03:42.004Z,12.35
2022-08-26T01:07:49.109Z,12.18
2022-08-26T01:12:00.623Z,12.80
2022-08-26T01:16:14.049Z,12.20
2022-08-26T01:20:40.101Z,11.95
2022-08-26T01:24:47.981Z,11.57
2022-08-26T01:28:57.219Z,9.95
2022-08-26T01:33:09.119Z,10.88
2022-08-26T01:37:20.281Z,10.40
2022-08-26T01:41:29.107Z,9.98
2022-08-26T01:45:39.398Z,9.68
2022-08-26T01:49:51.331Z,9.45
2022-08-26T01:54:00.479Z,8.90
2022-08-26T01:58:13.822Z,9.88
2022-08-26T02:02:20.553Z,9.07
2022-08-26T02:06:27.599Z,8.55
2022-08-26T02:10:34.353Z,8.63
2022-08-26T02:14:50.207Z,8.70
2022-08-26T02:18:59.744Z,7.57
2022-08-26T02:23:07.275Z,6.95
2022-08-26T02:27:16.417Z,6.78
2022-08-26T02:31:24.192Z,5.20
2022-08-26T02:35:33.277Z,5.40
2022-08-26T02:39:41.266Z,4.60
2022-08-26T02:43:47.985Z,5.20
2022-08-26T02:47:58.113Z,4.65
2022-08-26T02:56:12.992Z,4.03
2022-08-26T03:00:19.927Z,4.07
2022-08-26T03:04:26.673Z,3.60
2022-08-26T03:08:33.415Z,4.03
2022-08-26T03:12:40.910Z,3.25
2022-08-26T03:16:48.429Z,2.58
2022-08-26T03:20:55.410Z,3.45
2022-08-26T03:25:06.458Z,2.75
2022-08-26T03:29:33.015Z,1.95
2022-08-26T03:33:40.806Z,1.65
2022-08-26T03:37:47.624Z,1.85
2022-08-26T03:41:57.071Z,1.55
2022-08-26T03:46:12.111Z,2.72
2022-08-26T03:50:22.818Z,1.17
2022-08-26T03:54:29.885Z,1.50
2022-08-26T03:58:37.811Z,1.35
2022-08-26T04:02:46.192Z,1.33
2022-08-26T04:06:58.371Z,1.55
2022-08-26T04:11:05.848Z,1.88
2022-08-26T04:15:15.919Z,1.38
2022-08-26T04:23:32.356Z,0.60
2022-08-26T04:27:54.952Z,0.50
2022-08-26T04:32:03.043Z,1.35
2022-08-26T04:36:10.447Z,0.40
2022-08-26T04:40:17.337Z,0.40
2022-08-26T04:44:27.408Z,0.52
2022-08-26T04:48:34.269Z,0.70
2022-08-26T04:52:43.078Z,0.60
2022-08-26T04:56:50.741Z,0.50
2022-08-26T05:00:58.404Z,0.95
2022-08-26T05:05:07.124Z,0.88
2022-08-26T05:09:14.646Z,0.68
2022-08-26T05:13:24.789Z,0.38
2022-08-26T05:17:31.510Z,0.60
2022-08-26T05:21:38.745Z,1.00
2022-08-26T05:25:47.713Z,0.50
2022-08-26T05:29:57.332Z,0.50
2022-08-26T05:34:04.710Z,0.57
2022-08-26T05:38:16.820Z,0.45
2022-08-26T05:46:31.702Z,1.20
2022-08-26T05:50:40.931Z,0.40
2022-08-26T05:54:49.675Z,0.80
2022-08-26T05:58:58.371Z,0.60
2022-08-26T06:03:08.345Z,0.90
2022-08-26T06:07:16.898Z,0.70
2022-08-26T06:11:27.926Z,0.40
2022-08-26T06:15:35.542Z,1.02
2022-08-26T06:19:42.312Z,0.60
2022-08-26T06:24:09.613Z,0.70
2022-08-26T06:28:17.282Z,0.77
2022-08-26T06:32:24.905Z,0.73
2022-08-26T06:36:33.256Z,0.60
2022-08-26T06:40:45.890Z,0.30
2022-08-26T06:44:53.058Z,0.60
2022-08-26T06:49:00.041Z,0.80
2022-08-26T06:53:08.181Z,0.30
2022-08-26T06:57:16.833Z,0.50
2022-08-26T07:01:27.324Z,0.50
2022-08-26T07:05:35.827Z,0.30
2022-08-26T07:09:42.636Z,0.75
2022-08-26T07:13:50.561Z,0.40
2022-08-26T07:17:58.667Z,0.43
2022-08-26T07:22:06.145Z,0.70
2022-08-26T07:26:16.453Z,0.90
2022-08-26T07:30:23.469Z,0.40
2022-08-26T07:34:32.158Z,0.40
2022-08-26T07:38:41.543Z,0.30
2022-08-26T07:42:48.983Z,0.63
2022-08-26T07:46:56.079Z,0.30
2022-08-26T07:51:04.817Z,0.30
2022-08-26T07:55:11.773Z,0.30
2022-08-26T07:59:18.884Z,0.52
2022-08-26T08:03:25.651Z,0.30
2022-08-26T08:07:38.536Z,0.70
2022-08-26T08:11:53.109Z,0.40
2022-08-26T08:16:00.582Z,0.30
2022-08-26T08:20:08.688Z,0.47
2022-08-26T08:24:15.566Z,0.28
2022-08-26T08:28:22.268Z,0.30
2022-08-26T08:32:29.619Z,0.40
2022-08-26T08:36:36.485Z,0.28
2022-08-26T08:40:45.844Z,0.30
2022-08-26T08:44:53.933Z,0.25
2022-08-26T08:49:00.735Z,0.30
2022-08-26T08:53:30.412Z,0.20
2022-08-26T08:58:02.151Z,0.40
2022-08-26T09:02:35.917Z,0.30
2022-08-26T09:06:43.071Z,0.20
2022-08-26T09:11:00.379Z,0.35
2022-08-26T09:15:17.301Z,0.10
2022-08-26T09:19:52.596Z,0.28
2022-08-26T09:24:00.427Z,0.40
2022-08-26T09:28:14.945Z,0.30
2022-08-26T09:32:26.500Z,0.30
2022-08-26T09:36:37.772Z,0.32
2022-08-26T09:40:59.194Z,0.30
2022-08-26T09:45:10.501Z,0.43
2022-08-26T09:49:36.552Z,0.47
2022-08-26T09:53:58.656Z,0.40
2022-08-26T09:58:07.966Z,0.40
2022-08-26T10:02:34.145Z,0.38
2022-08-26T10:06:57.960Z,0.30
2022-08-26T10:11:16.161Z,0.60
2022-08-26T10:15:26.446Z,0.40
2022-08-26T10:19:58.619Z,0.40
2022-08-26T10:24:07.545Z,0.40
2022-08-26T10:28:38.233Z,0.40
2022-08-26T10:32:57.896Z,1.02
2022-08-26T10:37:16.662Z,0.40
2022-08-26T10:41:26.607Z,0.40
2022-08-26T10:45:38.705Z,0.50
2022-08-26T10:49:49.194Z,0.32
2022-08-26T10:54:04.388Z,0.30
2022-08-26T10:58:26.287Z,0.70
2022-08-26T11:02:41.831Z,0.40
2022-08-26T11:07:31.688Z,0.50
2022-08-26T11:11:48.219Z,0.52
2022-08-26T11:15:54.922Z,0.30
2022-08-26T11:20:08.929Z,0.60
2022-08-26T11:24:39.631Z,0.63
2022-08-26T11:28:50.128Z,0.63
2022-08-26T11:32:58.732Z,0.30
2022-08-26T11:37:14.116Z,0.40
2022-08-26T11:41:22.984Z,0.47
2022-08-26T11:45:44.395Z,0.30
2022-08-26T11:50:17.267Z,0.68
2022-08-26T11:54:35.146Z,0.20
2022-08-26T11:58:44.688Z,0.93
2022-08-26T12:02:52.763Z,0.40
2022-08-26T12:07:02.330Z,0.60
2022-08-26T12:11:32.982Z,0.32
2022-08-26T12:15:39.726Z,0.40
2022-08-26T12:19:47.252Z,0.22
2022-08-26T12:23:57.154Z,0.20
2022-08-26T12:28:06.046Z,0.17
2022-08-26T12:32:17.631Z,0.20
2022-08-26T12:36:48.909Z,0.40
2022-08-26T12:40:57.061Z,0.20
2022-08-26T12:45:06.649Z,0.10
2022-08-26T12:49:18.403Z,0.20
2022-08-26T12:57:36.670Z,0.50
2022-08-26T13:01:44.947Z,0.95
2022-08-26T13:05:51.898Z,0.20
2022-08-26T13:09:59.929Z,0.30
2022-08-26T13:14:09.720Z,0.30
2022-08-26T13:18:16.853Z,0.20
2022-08-26T13:22:25.386Z,0.25
2022-08-26T13:26:32.209Z,1.48
2022-08-26T13:30:39.841Z,0.30
2022-08-26T13:34:51.379Z,0.22
2022-08-26T13:38:58.992Z,0.30
2022-08-26T13:43:05.798Z,0.22
2022-08-26T13:47:13.166Z,0.22
2022-08-26T13:51:22.353Z,0.28
2022-08-26T13:55:29.252Z,0.20
2022-08-26T13:59:36.049Z,0.25
2022-08-26T14:03:43.851Z,0.60
2022-08-26T14:07:50.801Z,0.77
2022-08-26T14:11:59.883Z,0.47
2022-08-26T14:16:11.939Z,0.32
2022-08-26T14:20:29.686Z,0.10
2022-08-26T14:24:36.533Z,0.52
2022-08-26T14:28:43.400Z,0.20
2022-08-26T14:32:54.595Z,0.20
2022-08-26T14:37:07.354Z,0.10
2022-08-26T14:41:17.288Z,0.20
2022-08-26T14:45:30.204Z,0.17
2022-08-26T14:49:37.055Z,0.10
2022-08-26T14:54:02.678Z,0.20
2022-08-26T14:58:10.189Z,0.30
2022-08-26T15:02:33.048Z,0.20
2022-08-26T15:06:41.321Z,0.45
2022-08-26T15:10:48.161Z,1.15
2022-08-26T15:14:54.963Z,0.40
2022-08-26T15:19:04.887Z,0.28
2022-08-26T15:23:12.087Z,0.30
2022-08-26T15:27:19.618Z,0.30
2022-08-26T15:31:31.308Z,0.10
2022-08-26T15:39:47.625Z,0.20
2022-08-26T15:43:54.411Z,0.35
2022-08-26T15:48:02.935Z,0.10
2022-08-26T15:52:09.979Z,0.35
2022-08-26T15:56:17.693Z,0.20
2022-08-26T16:00:24.907Z,0.28
2022-08-26T16:04:31.720Z,0.20
2022-08-26T16:08:38.545Z,0.98
2022-08-26T16:12:45.353Z,0.20
2022-08-26T16:16:52.699Z,0.30
2022-08-26T16:21:13.406Z,0.22
2022-08-26T16:25:20.773Z,0.10
2022-08-26T16:29:27.938Z,0.17
2022-08-26T16:33:34.745Z,0.20
2022-08-26T16:37:42.181Z,0.25
2022-08-26T16:41:49.059Z,0.30
2022-08-26T16:45:56.524Z,0.20
2022-08-26T16:50:06.631Z,0.30
2022-08-26T16:54:13.488Z,0.30
2022-08-26T16:58:22.158Z,0.30
2022-08-26T17:02:29.230Z,0.45
2022-08-26T17:06:36.147Z,0.30
2022-08-26T17:19:02.558Z,0.52
2022-08-26T17:23:10.160Z,1.17
2022-08-26T17:27:17.170Z,0.20
2022-08-26T17:31:24.448Z,0.22
2022-08-26T17:35:31.313Z,0.20
2022-08-26T17:39:42.552Z,0.10
2022-08-26T17:43:49.392Z,0.20
2022-08-26T17:47:56.619Z,0.20
2022-08-26T17:52:05.230Z,0.30
2022-08-26T17:56:16.718Z,1.20
2022-08-26T18:00:26.671Z,0.95
2022-08-26T18:04:33.450Z,1.02
2022-08-26T18:08:41.284Z,0.35
2022-08-26T18:12:48.524Z,0.73
2022-08-26T18:16:55.443Z,0.90
2022-08-26T18:21:02.985Z,0.52
2022-08-26T18:25:10.263Z,0.30
2022-08-26T18:29:19.091Z,0.50
2022-08-26T18:33:25.782Z,0.30
2022-08-26T18:37:32.560Z,0.52
2022-08-26T18:41:45.463Z,1.05
2022-08-26T18:46:02.636Z,0.40
2022-08-26T18:50:10.849Z,0.98
2022-08-26T18:58:27.727Z,1.15
2022-08-26T19:02:34.833Z,0.30
2022-08-26T19:06:43.941Z,0.57
2022-08-26T19:10:50.929Z,0.32
2022-08-26T19:14:57.654Z,0.65
2022-08-26T19:19:07.002Z,0.45
2022-08-26T19:23:30.997Z,0.30
2022-08-26T19:27:38.874Z,0.30
2022-08-26T19:31:47.958Z,0.68
2022-08-26T19:35:55.707Z,0.30
2022-08-26T19:40:02.737Z,0.30
2022-08-26T19:44:13.249Z,0.40
2022-08-26T19:48:20.025Z,0.40
2022-08-26T19:52:29.919Z,0.30
2022-08-26T19:56:37.076Z,0.50
2022-08-26T20:00:43.883Z,0.82
2022-08-26T20:04:50.631Z,0.40
2022-08-26T20:08:57.448Z,0.40
2022-08-26T20:13:04.221Z,0.50
2022-08-26T20:17:10.983Z,0.30
2022-08-26T20:21:26.690Z,1.15
2022-08-26T20:25:34.368Z,0.50
2022-08-26T20:29:43.075Z,0.98
2022-08-26T20:33:50.644Z,0.40
2022-08-26T20:37:57.489Z,0.52
2022-08-26T20:42:06.836Z,0.40
2022-08-26T20:46:27.697Z,0.60
2022-08-26T20:50:34.572Z,0.50
2022-08-26T20:54:41.450Z,0.30
2022-08-26T20:58:48.265Z,0.82
2022-08-26T21:02:55.080Z,1.08
2022-08-26T21:07:01.906Z,0.35
2022-08-26T21:11:08.782Z,0.98
2022-08-26T21:15:17.299Z,0.40
2022-08-26T21:19:24.096Z,0.30
2022-08-26T21:23:31.061Z,0.43
2022-08-26T21:27:38.506Z,0.57
2022-08-26T21:31:46.691Z,0.50
2022-08-26T21:35:54.064Z,0.30
2022-08-26T21:40:02.002Z,1.02
2022-08-26T21:44:09.954Z,0.60
2022-08-26T21:48:16.752Z,0.30
2022-08-26T21:52:23.588Z,0.50
2022-08-26T21:56:32.970Z,0.45
2022-08-26T22:00:49.931Z,0.40
2022-08-26T22:04:57.087Z,0.40
2022-08-26T22:09:03.933Z,0.88
2022-08-26T22:13:11.505Z,0.93
2022-08-26T22:17:22.865Z,0.50
2022-08-26T22:21:30.539Z,0.55
2022-08-26T22:25:37.470Z,0.40
2022-08-26T22:29:46.562Z,0.40
2022-08-26T22:33:53.400Z,1.20
2022-08-26T22:38:00.232Z,0.65
2022-08-26T22:42:07.225Z,0.52
2022-08-26T22:46:22.057Z,1.05
2022-08-26T22:50:28.853Z,0.75
2022-08-26T22:54:35.637Z,0.57
2022-08-26T22:58:42.482Z,0.60
2022-08-26T23:02:49.261Z,0.60
2022-08-26T23:06:56.045Z,1.35
2022-08-26T23:11:02.945Z,0.95
2022-08-26T23:15:12.299Z,0.80
2022-08-26T23:19:21.397Z,0.47
2022-08-26T23:23:28.272Z,0.63
2022-08-26T23:27:42.361Z,0.50
2022-08-26T23:31:49.276Z,0.60
2022-08-26T23:35:56.994Z,0.70
2022-08-26T23:40:11.287Z,0.63
2022-08-26T23:44:19.713Z,0.55
2022-08-26T23:48:26.605Z,0.65
2022-08-26T23:52:52.096Z,0.50
2022-08-26T23:56:59.466Z,0.68
